Defne-s — TCTI5 — position and weather

sailwx.info

Track history (hours):
 
Tides and Currents Weather Stations Pressure Air Temp Water Temp Dewpoint Dewpoint Depression Visibility Wind Speed Wind Dir Waves Ship Positions

Defne-s

Last reported at 2016-Dec-05 08:09 UTC. Time now 2016-Dec-05 10:34 UTC.
Position N 36°05' W 004°15'.

Length 109 m; draft 5.4 m.

Type: Tanker. MMSI: 271002639.

Date/timePositionNaut miles runAvg speedWind from/ knotsBaromVisibWave heightAir tempDewpointWater temp
2016-Dec-05 08:09N 36°05' W 004°15'712.1
2016-Dec-05 07:33N 36°05' W 004°24'1111.5
2016-Dec-05 06:34N 36°05' W 004°38'1010.3
2016-Dec-05 05:34N 36°05' W 004°50'1010.0
2016-Dec-05 04:34N 36°05' W 005°03'1110.8
2016-Dec-05 03:34N 36°05' W 005°16'5 5.1
2016-Dec-05 02:33N 36°07' W 005°22'0 0.1
2016-Dec-05 01:20N 36°07' W 005°22'0 0.1
2016-Dec-05 00:26N 36°07' W 005°22'0 0.0
2016-Dec-04 23:32N 36°07' W 005°22'2 1.9
2016-Dec-04 22:33N 36°05' W 005°21'7 3.3
2016-Dec-04 20:33N 35°60' W 005°25'1310.0
2016-Dec-04 19:13N 35°55' W 005°40'77 8.8
2016-Dec-04 10:28N 35°22' W 007°06'8 9.0
2016-Dec-04 09:33N 35°16' W 007°13'9 8.9
2016-Dec-04 08:33N 35°10' W 007°21'9 9.2
2016-Dec-04 07:33N 35°03' W 007°29'12 9.7
2016-Dec-04 06:21N 34°56' W 007°39'8 9.8
2016-Dec-04 05:33N 34°50' W 007°46'10 9.6
2016-Dec-04 04:33N 34°44' W 007°55'9 9.3
2016-Dec-04 03:33N 34°38' W 008°03'10 9.5
2016-Dec-04 02:27N 34°30' W 008°12'8 9.3
2016-Dec-04 01:33N 34°24' W 008°20'9 9.2
2016-Dec-04 00:33N 34°18' W 008°28'9 9.1
2016-Dec-03 23:33N 34°12' W 008°36'9 8.9
2016-Dec-03 22:33N 34°06' W 008°44'9 8.5
2016-Dec-03 21:33N 34°00' W 008°51'9 8.5
2016-Dec-03 20:33N 33°55' W 008°59'8 8.4
2016-Dec-03 19:33N 33°49' W 009°07'8 8.5
2016-Dec-03 18:33N 33°43' W 009°14'8 8.3
2016-Dec-03 17:33N 33°37' W 009°21'9 8.7
2016-Dec-03 16:33N 33°31' W 009°28'9 8.9
2016-Dec-03 15:33N 33°25' W 009°36'9 8.9
2016-Dec-03 14:33N 33°20' W 009°44'9 9.0
2016-Dec-03 13:33N 33°13' W 009°52'9 9.1
2016-Dec-03 12:33N 33°07' W 009°60'9 8.8
2016-Dec-03 11:33N 33°01' W 010°08'9 8.9
2016-Dec-03 10:32N 32°55' W 010°16'9 9.0
2016-Dec-03 09:33N 32°49' W 010°23'9 9.0
2016-Dec-03 08:33N 32°43' W 010°31'9 8.9
2016-Dec-03 07:33N 32°37' W 010°39'9 8.9
2016-Dec-03 06:33N 32°31' W 010°47'9 9.1
2016-Dec-03 05:33N 32°24' W 010°55'9 9.2
2016-Dec-03 04:33N 32°18' W 011°03'9 8.9
2016-Dec-03 03:31N 32°12' W 011°11'8 8.7
2016-Dec-03 02:33N 32°06' W 011°17'9 8.6
2016-Dec-03 01:33N 31°60' W 011°25'9 8.7
2016-Dec-03 00:32N 31°54' W 011°33'9 8.8
2016-Dec-02 23:30N 31°48' W 011°41'8 8.6
2016-Dec-02 22:32N 31°42' W 011°48'8 8.6
2016-Dec-02 21:33N 31°37' W 011°55'10 8.9
2016-Dec-02 20:27N 31°30' W 012°04'9 9.1
2016-Dec-02 19:31N 31°24' W 012°11'9 9.1
2016-Dec-02 18:33N 31°18' W 012°18'9 8.9
2016-Dec-02 17:33N 31°12' W 012°26'9 8.6
2016-Dec-02 16:32N 31°06' W 012°34'9 8.6
2016-Dec-02 15:32N 31°00' W 012°41'10 8.8
2016-Dec-02 14:25N 30°53' W 012°49'8 9.0
2016-Dec-02 13:32N 30°48' W 012°56'8 8.8
2016-Dec-02 12:33N 30°42' W 013°03'10 9.6
2016-Dec-02 11:33N 30°35' W 013°11'1110.8
2016-Dec-02 10:33N 30°28' W 013°21'1110.9
2016-Dec-02 09:33N 30°21' W 013°30'1110.8
2016-Dec-02 08:30N 30°13' W 013°39'1010.9
2016-Dec-02 07:33N 30°06' W 013°48'1111.1
2016-Dec-02 06:33N 29°58' W 013°57'1211.7
2016-Dec-02 05:33N 29°50' W 014°07'1211.8
2016-Dec-02 04:33N 29°42' W 014°17'1211.8
2016-Dec-02 03:33N 29°34' W 014°27'1212.0
2016-Dec-02 02:33N 29°26' W 014°38'1211.9
2016-Dec-02 01:33N 29°18' W 014°48'1211.8
2016-Dec-02 00:33N 29°10' W 014°58'1211.9
2016-Dec-01 23:33N 29°02' W 015°08'1211.7
2016-Dec-01 22:33N 28°54' W 015°17'1111.4
2016-Dec-01 21:33N 28°46' W 015°27'1111.3
2016-Dec-01 20:33N 28°38' W 015°36'1111.2
2016-Dec-01 19:33N 28°30' W 015°45'1111.5
2016-Dec-01 18:33N 28°21' W 015°53'9 9.5
2016-Dec-01 17:33N 28°21' W 016°04'1110.4
2016-Dec-01 16:32N 28°29' W 016°12'1 0.7
2016-Dec-01 15:29N 28°29' W 016°13'0 0.0
2016-Dec-01 13:29N 28°29' W 016°13'0 0.3
2016-Dec-01 12:33N 28°29' W 016°13'11 8.3
2016-Dec-01 11:13N 28°25' W 016°01'710.4
2016-Dec-01 10:33N 28°19' W 015°57'1110.7
2016-Dec-01 09:30N 28°09' W 016°04'1410.9
2016-Dec-01 08:14N 27°59' W 016°15'710.8
2016-Dec-01 07:33N 27°53' W 016°20'  
Track history (hours):
 
Tides and Currents Weather Stations Pressure Air Temp Water Temp Dewpoint Dewpoint Depression Visibility Wind Speed Wind Dir Waves Ship Positions

Defne-s

Last reported at 2016-Dec-05 08:09 UTC. Time now 2016-Dec-05 10:34 UTC.
Position N 36°05' W 004°15'.

Length 109 m; draft 5.4 m.

Type: Tanker. MMSI: 271002639.

Date/timePositionNaut miles runAvg speedWind from/ knotsBaromVisibWave heightAir tempDewpointWater temp
2016-Dec-05 08:09N 36°05' W 004°15'712.1
2016-Dec-05 07:33N 36°05' W 004°24'1111.5
2016-Dec-05 06:34N 36°05' W 004°38'1010.3
2016-Dec-05 05:34N 36°05' W 004°50'1010.0
2016-Dec-05 04:34N 36°05' W 005°03'1110.8
2016-Dec-05 03:34N 36°05' W 005°16'5 5.1
2016-Dec-05 02:33N 36°07' W 005°22'0 0.1
2016-Dec-05 01:20N 36°07' W 005°22'0 0.1
2016-Dec-05 00:26N 36°07' W 005°22'0 0.0
2016-Dec-04 23:32N 36°07' W 005°22'2 1.9
2016-Dec-04 22:33N 36°05' W 005°21'7 3.3
2016-Dec-04 20:33N 35°60' W 005°25'1310.0
2016-Dec-04 19:13N 35°55' W 005°40'77 8.8
2016-Dec-04 10:28N 35°22' W 007°06'8 9.0
2016-Dec-04 09:33N 35°16' W 007°13'9 8.9
2016-Dec-04 08:33N 35°10' W 007°21'9 9.2
2016-Dec-04 07:33N 35°03' W 007°29'12 9.7
2016-Dec-04 06:21N 34°56' W 007°39'8 9.8
2016-Dec-04 05:33N 34°50' W 007°46'10 9.6
2016-Dec-04 04:33N 34°44' W 007°55'9 9.3
2016-Dec-04 03:33N 34°38' W 008°03'10 9.5
2016-Dec-04 02:27N 34°30' W 008°12'8 9.3
2016-Dec-04 01:33N 34°24' W 008°20'9 9.2
2016-Dec-04 00:33N 34°18' W 008°28'9 9.1
2016-Dec-03 23:33N 34°12' W 008°36'9 8.9
2016-Dec-03 22:33N 34°06' W 008°44'9 8.5
2016-Dec-03 21:33N 34°00' W 008°51'9 8.5
2016-Dec-03 20:33N 33°55' W 008°59'8 8.4
2016-Dec-03 19:33N 33°49' W 009°07'8 8.5
2016-Dec-03 18:33N 33°43' W 009°14'8 8.3
2016-Dec-03 17:33N 33°37' W 009°21'9 8.7
2016-Dec-03 16:33N 33°31' W 009°28'9 8.9
2016-Dec-03 15:33N 33°25' W 009°36'9 8.9
2016-Dec-03 14:33N 33°20' W 009°44'9 9.0
2016-Dec-03 13:33N 33°13' W 009°52'9 9.1
2016-Dec-03 12:33N 33°07' W 009°60'9 8.8
2016-Dec-03 11:33N 33°01' W 010°08'9 8.9
2016-Dec-03 10:32N 32°55' W 010°16'9 9.0
2016-Dec-03 09:33N 32°49' W 010°23'9 9.0
2016-Dec-03 08:33N 32°43' W 010°31'9 8.9
2016-Dec-03 07:33N 32°37' W 010°39'9 8.9
2016-Dec-03 06:33N 32°31' W 010°47'9 9.1
2016-Dec-03 05:33N 32°24' W 010°55'9 9.2
2016-Dec-03 04:33N 32°18' W 011°03'9 8.9
2016-Dec-03 03:31N 32°12' W 011°11'8 8.7
2016-Dec-03 02:33N 32°06' W 011°17'9 8.6
2016-Dec-03 01:33N 31°60' W 011°25'9 8.7
2016-Dec-03 00:32N 31°54' W 011°33'9 8.8
2016-Dec-02 23:30N 31°48' W 011°41'8 8.6
2016-Dec-02 22:32N 31°42' W 011°48'8 8.6
2016-Dec-02 21:33N 31°37' W 011°55'10 8.9
2016-Dec-02 20:27N 31°30' W 012°04'9 9.1
2016-Dec-02 19:31N 31°24' W 012°11'9 9.1
2016-Dec-02 18:33N 31°18' W 012°18'9 8.9
2016-Dec-02 17:33N 31°12' W 012°26'9 8.6
2016-Dec-02 16:32N 31°06' W 012°34'9 8.6
2016-Dec-02 15:32N 31°00' W 012°41'10 8.8
2016-Dec-02 14:25N 30°53' W 012°49'8 9.0
2016-Dec-02 13:32N 30°48' W 012°56'8 8.8
2016-Dec-02 12:33N 30°42' W 013°03'10 9.6
2016-Dec-02 11:33N 30°35' W 013°11'1110.8
2016-Dec-02 10:33N 30°28' W 013°21'1110.9
2016-Dec-02 09:33N 30°21' W 013°30'1110.8
2016-Dec-02 08:30N 30°13' W 013°39'1010.9
2016-Dec-02 07:33N 30°06' W 013°48'1111.1
2016-Dec-02 06:33N 29°58' W 013°57'1211.7
2016-Dec-02 05:33N 29°50' W 014°07'1211.8
2016-Dec-02 04:33N 29°42' W 014°17'1211.8
2016-Dec-02 03:33N 29°34' W 014°27'1212.0
2016-Dec-02 02:33N 29°26' W 014°38'1211.9
2016-Dec-02 01:33N 29°18' W 014°48'1211.8
2016-Dec-02 00:33N 29°10' W 014°58'1211.9
2016-Dec-01 23:33N 29°02' W 015°08'1211.7
2016-Dec-01 22:33N 28°54' W 015°17'1111.4
2016-Dec-01 21:33N 28°46' W 015°27'1111.3
2016-Dec-01 20:33N 28°38' W 015°36'1111.2
2016-Dec-01 19:33N 28°30' W 015°45'1111.5
2016-Dec-01 18:33N 28°21' W 015°53'9 9.5
2016-Dec-01 17:33N 28°21' W 016°04'1110.4
2016-Dec-01 16:32N 28°29' W 016°12'1 0.7
2016-Dec-01 15:29N 28°29' W 016°13'0 0.0
2016-Dec-01 13:29N 28°29' W 016°13'0 0.3
2016-Dec-01 12:33N 28°29' W 016°13'11 8.3
2016-Dec-01 11:13N 28°25' W 016°01'710.4
2016-Dec-01 10:33N 28°19' W 015°57'1110.7
2016-Dec-01 09:30N 28°09' W 016°04'1410.9
2016-Dec-01 08:14N 27°59' W 016°15'710.8
2016-Dec-01 07:33N 27°53' W 016°20'  

Dump ship's entire track history